sensor_id;sensor_type;location;lat;lon;timestamp;P1;durP1;ratioP1;P2;durP2;ratioP2
30149;SDS011;16962;48.646;9.026;2023-05-27T00:02:30;18.30;;;5.75;;
30149;SDS011;16962;48.646;9.026;2023-05-27T00:05:20;10.80;;;5.07;;
30149;SDS011;16962;48.646;9.026;2023-05-27T00:08:08;14.85;;;5.65;;
30149;SDS011;16962;48.646;9.026;2023-05-27T00:10:55;17.25;;;5.22;;
30149;SDS011;16962;48.646;9.026;2023-05-27T00:13:42;14.93;;;6.13;;
30149;SDS011;16962;48.646;9.026;2023-05-27T00:16:30;14.90;;;4.80;;
30149;SDS011;16962;48.646;9.026;2023-05-27T00:19:21;17.85;;;6.00;;
30149;SDS011;16962;48.646;9.026;2023-05-27T00:22:10;13.73;;;5.13;;
30149;SDS011;16962;48.646;9.026;2023-05-27T00:24:58;16.52;;;5.60;;
30149;SDS011;16962;48.646;9.026;2023-05-27T00:27:47;13.93;;;5.57;;
30149;SDS011;16962;48.646;9.026;2023-05-27T00:30:37;11.60;;;4.95;;
30149;SDS011;16962;48.646;9.026;2023-05-27T00:33:24;16.88;;;5.03;;
30149;SDS011;16962;48.646;9.026;2023-05-27T00:36:14;19.85;;;5.55;;
30149;SDS011;16962;48.646;9.026;2023-05-27T00:39:02;11.95;;;5.20;;
30149;SDS011;16962;48.646;9.026;2023-05-27T00:41:50;19.13;;;5.10;;
30149;SDS011;16962;48.646;9.026;2023-05-27T00:44:38;12.85;;;5.53;;
30149;SDS011;16962;48.646;9.026;2023-05-27T00:47:26;15.38;;;5.75;;
30149;SDS011;16962;48.646;9.026;2023-05-27T00:50:17;17.05;;;5.30;;
30149;SDS011;16962;48.646;9.026;2023-05-27T00:53:05;16.75;;;5.40;;
30149;SDS011;16962;48.646;9.026;2023-05-27T00:55:52;16.25;;;5.13;;
30149;SDS011;16962;48.646;9.026;2023-05-27T00:58:43;13.02;;;5.13;;
30149;SDS011;16962;48.646;9.026;2023-05-27T01:01:31;16.45;;;5.35;;
30149;SDS011;16962;48.646;9.026;2023-05-27T01:04:26;17.85;;;5.40;;
30149;SDS011;16962;48.646;9.026;2023-05-27T01:10:52;17.48;;;5.68;;
30149;SDS011;16962;48.646;9.026;2023-05-27T01:13:41;12.45;;;5.25;;
30149;SDS011;16962;48.646;9.026;2023-05-27T01:16:36;17.98;;;5.15;;
30149;SDS011;16962;48.646;9.026;2023-05-27T01:19:30;17.27;;;5.38;;
30149;SDS011;16962;48.646;9.026;2023-05-27T01:22:25;17.95;;;5.15;;
30149;SDS011;16962;48.646;9.026;2023-05-27T01:25:18;16.88;;;5.43;;
30149;SDS011;16962;48.646;9.026;2023-05-27T01:28:06;20.30;;;6.45;;
30149;SDS011;16962;48.646;9.026;2023-05-27T01:30:54;16.45;;;4.97;;
30149;SDS011;16962;48.646;9.026;2023-05-27T01:34:08;13.90;;;4.80;;
30149;SDS011;16962;48.646;9.026;2023-05-27T01:36:58;14.57;;;5.28;;
30149;SDS011;16962;48.646;9.026;2023-05-27T01:39:51;17.10;;;4.82;;
30149;SDS011;16962;48.646;9.026;2023-05-27T01:42:41;19.27;;;6.32;;
30149;SDS011;16962;48.646;9.026;2023-05-27T01:45:37;20.13;;;5.43;;
30149;SDS011;16962;48.646;9.026;2023-05-27T01:48:26;19.00;;;5.55;;
30149;SDS011;16962;48.646;9.026;2023-05-27T01:51:14;18.02;;;5.10;;
30149;SDS011;16962;48.646;9.026;2023-05-27T01:54:03;15.25;;;5.53;;
30149;SDS011;16962;48.646;9.026;2023-05-27T01:56:57;22.92;;;5.78;;
30149;SDS011;16962;48.646;9.026;2023-05-27T01:59:47;17.73;;;5.10;;
30149;SDS011;16962;48.646;9.026;2023-05-27T02:02:34;18.48;;;6.43;;
30149;SDS011;16962;48.646;9.026;2023-05-27T02:05:23;23.63;;;6.07;;
30149;SDS011;16962;48.646;9.026;2023-05-27T02:08:10;16.30;;;5.30;;
30149;SDS011;16962;48.646;9.026;2023-05-27T02:10:57;12.00;;;4.78;;
30149;SDS011;16962;48.646;9.026;2023-05-27T02:13:44;20.30;;;5.57;;
30149;SDS011;16962;48.646;9.026;2023-05-27T02:16:32;16.92;;;5.63;;
30149;SDS011;16962;48.646;9.026;2023-05-27T02:19:20;16.30;;;5.15;;
30149;SDS011;16962;48.646;9.026;2023-05-27T02:22:08;18.15;;;5.85;;
30149;SDS011;16962;48.646;9.026;2023-05-27T02:25:01;27.70;;;5.30;;
30149;SDS011;16962;48.646;9.026;2023-05-27T02:27:54;25.02;;;5.50;;
30149;SDS011;16962;48.646;9.026;2023-05-27T02:30:42;21.27;;;6.20;;
30149;SDS011;16962;48.646;9.026;2023-05-27T02:33:29;16.80;;;5.45;;
30149;SDS011;16962;48.646;9.026;2023-05-27T02:36:19;17.38;;;5.53;;
30149;SDS011;16962;48.646;9.026;2023-05-27T02:39:10;17.15;;;5.40;;
30149;SDS011;16962;48.646;9.026;2023-05-27T02:41:57;20.88;;;5.72;;
30149;SDS011;16962;48.646;9.026;2023-05-27T02:44:45;15.05;;;5.22;;
30149;SDS011;16962;48.646;9.026;2023-05-27T02:47:34;17.45;;;5.72;;
30149;SDS011;16962;48.646;9.026;2023-05-27T02:50:24;27.33;;;5.78;;
30149;SDS011;16962;48.646;9.026;2023-05-27T02:53:11;21.52;;;5.40;;
30149;SDS011;16962;48.646;9.026;2023-05-27T02:56:00;16.67;;;5.32;;
30149;SDS011;16962;48.646;9.026;2023-05-27T02:58:47;19.17;;;6.35;;
30149;SDS011;16962;48.646;9.026;2023-05-27T03:01:37;20.00;;;5.55;;
30149;SDS011;16962;48.646;9.026;2023-05-27T03:04:29;20.45;;;5.70;;
30149;SDS011;16962;48.646;9.026;2023-05-27T03:07:19;23.38;;;6.13;;
30149;SDS011;16962;48.646;9.026;2023-05-27T03:10:07;18.98;;;5.85;;
30149;SDS011;16962;48.646;9.026;2023-05-27T03:12:54;21.70;;;5.07;;
30149;SDS011;16962;48.646;9.026;2023-05-27T03:15:44;21.73;;;6.45;;
30149;SDS011;16962;48.646;9.026;2023-05-27T03:18:33;20.47;;;5.53;;
30149;SDS011;16962;48.646;9.026;2023-05-27T03:21:21;20.75;;;5.05;;
30149;SDS011;16962;48.646;9.026;2023-05-27T03:24:11;22.80;;;6.10;;
30149;SDS011;16962;48.646;9.026;2023-05-27T03:27:02;30.65;;;6.40;;
30149;SDS011;16962;48.646;9.026;2023-05-27T03:29:51;16.35;;;5.75;;
30149;SDS011;16962;48.646;9.026;2023-05-27T03:32:40;23.88;;;5.72;;
30149;SDS011;16962;48.646;9.026;2023-05-27T03:35:28;19.33;;;5.22;;
30149;SDS011;16962;48.646;9.026;2023-05-27T03:38:15;14.77;;;4.82;;
30149;SDS011;16962;48.646;9.026;2023-05-27T03:41:02;21.98;;;5.90;;
30149;SDS011;16962;48.646;9.026;2023-05-27T03:43:56;15.47;;;4.97;;
30149;SDS011;16962;48.646;9.026;2023-05-27T03:46:44;19.52;;;5.78;;
30149;SDS011;16962;48.646;9.026;2023-05-27T03:49:31;20.33;;;5.95;;
30149;SDS011;16962;48.646;9.026;2023-05-27T03:52:18;22.42;;;6.40;;
30149;SDS011;16962;48.646;9.026;2023-05-27T03:55:06;25.35;;;5.68;;
30149;SDS011;16962;48.646;9.026;2023-05-27T03:57:54;18.45;;;6.47;;
30149;SDS011;16962;48.646;9.026;2023-05-27T04:04:02;19.77;;;6.22;;
30149;SDS011;16962;48.646;9.026;2023-05-27T04:06:49;22.48;;;5.82;;
30149;SDS011;16962;48.646;9.026;2023-05-27T04:09:39;18.13;;;5.95;;
30149;SDS011;16962;48.646;9.026;2023-05-27T04:12:27;22.55;;;6.28;;
30149;SDS011;16962;48.646;9.026;2023-05-27T04:15:17;23.50;;;5.78;;
30149;SDS011;16962;48.646;9.026;2023-05-27T04:20:56;15.32;;;6.10;;
30149;SDS011;16962;48.646;9.026;2023-05-27T04:23:44;24.15;;;5.88;;
30149;SDS011;16962;48.646;9.026;2023-05-27T04:26:35;20.75;;;6.18;;
30149;SDS011;16962;48.646;9.026;2023-05-27T04:29:34;28.52;;;6.00;;
30149;SDS011;16962;48.646;9.026;2023-05-27T04:32:24;22.10;;;6.35;;
30149;SDS011;16962;48.646;9.026;2023-05-27T04:35:14;18.17;;;6.25;;
30149;SDS011;16962;48.646;9.026;2023-05-27T04:38:01;19.10;;;6.57;;
30149;SDS011;16962;48.646;9.026;2023-05-27T04:40:49;21.35;;;6.13;;
30149;SDS011;16962;48.646;9.026;2023-05-27T04:43:39;18.40;;;6.32;;
30149;SDS011;16962;48.646;9.026;2023-05-27T04:46:31;19.30;;;5.10;;
30149;SDS011;16962;48.646;9.026;2023-05-27T04:49:18;23.60;;;6.30;;
30149;SDS011;16962;48.646;9.026;2023-05-27T04:52:05;19.27;;;6.35;;
30149;SDS011;16962;48.646;9.026;2023-05-27T04:54:56;25.38;;;6.35;;
30149;SDS011;16962;48.646;9.026;2023-05-27T04:57:43;20.88;;;6.07;;
30149;SDS011;16962;48.646;9.026;2023-05-27T05:00:33;20.08;;;6.07;;
30149;SDS011;16962;48.646;9.026;2023-05-27T05:03:37;20.30;;;5.45;;
30149;SDS011;16962;48.646;9.026;2023-05-27T05:06:26;19.10;;;5.55;;
30149;SDS011;16962;48.646;9.026;2023-05-27T05:09:13;18.88;;;5.93;;
30149;SDS011;16962;48.646;9.026;2023-05-27T05:12:01;15.50;;;5.95;;
30149;SDS011;16962;48.646;9.026;2023-05-27T05:14:51;18.27;;;5.22;;
30149;SDS011;16962;48.646;9.026;2023-05-27T05:17:41;27.90;;;5.93;;
30149;SDS011;16962;48.646;9.026;2023-05-27T05:20:28;25.02;;;6.68;;
30149;SDS011;16962;48.646;9.026;2023-05-27T05:23:16;17.50;;;5.18;;
30149;SDS011;16962;48.646;9.026;2023-05-27T05:26:03;17.67;;;6.28;;
30149;SDS011;16962;48.646;9.026;2023-05-27T05:28:55;19.40;;;5.65;;
30149;SDS011;16962;48.646;9.026;2023-05-27T05:31:42;16.85;;;5.65;;
30149;SDS011;16962;48.646;9.026;2023-05-27T05:34:32;22.75;;;5.65;;
30149;SDS011;16962;48.646;9.026;2023-05-27T05:37:19;29.48;;;6.13;;
30149;SDS011;16962;48.646;9.026;2023-05-27T05:40:06;21.83;;;6.28;;
30149;SDS011;16962;48.646;9.026;2023-05-27T05:42:54;20.90;;;5.40;;
30149;SDS011;16962;48.646;9.026;2023-05-27T05:45:43;22.98;;;6.10;;
30149;SDS011;16962;48.646;9.026;2023-05-27T05:48:31;18.55;;;5.85;;
30149;SDS011;16962;48.646;9.026;2023-05-27T05:51:18;19.38;;;5.57;;
30149;SDS011;16962;48.646;9.026;2023-05-27T05:54:07;23.95;;;5.22;;
30149;SDS011;16962;48.646;9.026;2023-05-27T05:56:54;18.85;;;5.43;;
30149;SDS011;16962;48.646;9.026;2023-05-27T05:59:42;17.30;;;5.63;;
30149;SDS011;16962;48.646;9.026;2023-05-27T06:02:29;21.20;;;6.35;;
30149;SDS011;16962;48.646;9.026;2023-05-27T06:05:17;15.65;;;5.78;;
30149;SDS011;16962;48.646;9.026;2023-05-27T06:08:04;26.92;;;5.72;;
30149;SDS011;16962;48.646;9.026;2023-05-27T06:10:53;18.75;;;5.35;;
30149;SDS011;16962;48.646;9.026;2023-05-27T06:13:41;22.88;;;5.20;;
30149;SDS011;16962;48.646;9.026;2023-05-27T06:16:31;24.60;;;5.18;;
30149;SDS011;16962;48.646;9.026;2023-05-27T06:19:18;19.45;;;4.93;;
30149;SDS011;16962;48.646;9.026;2023-05-27T06:22:08;18.60;;;5.28;;
30149;SDS011;16962;48.646;9.026;2023-05-27T06:24:56;23.40;;;5.80;;
30149;SDS011;16962;48.646;9.026;2023-05-27T06:27:43;18.40;;;5.38;;
30149;SDS011;16962;48.646;9.026;2023-05-27T06:30:33;19.33;;;5.43;;
30149;SDS011;16962;48.646;9.026;2023-05-27T06:33:30;17.45;;;5.82;;
30149;SDS011;16962;48.646;9.026;2023-05-27T06:36:17;17.45;;;5.10;;
30149;SDS011;16962;48.646;9.026;2023-05-27T06:39:05;16.17;;;5.32;;
30149;SDS011;16962;48.646;9.026;2023-05-27T06:41:52;21.02;;;5.68;;
30149;SDS011;16962;48.646;9.026;2023-05-27T06:44:40;23.10;;;5.82;;
30149;SDS011;16962;48.646;9.026;2023-05-27T06:47:27;12.93;;;5.20;;
30149;SDS011;16962;48.646;9.026;2023-05-27T06:50:17;20.13;;;5.53;;
30149;SDS011;16962;48.646;9.026;2023-05-27T06:53:04;15.95;;;5.10;;
30149;SDS011;16962;48.646;9.026;2023-05-27T06:55:51;22.38;;;5.90;;
30149;SDS011;16962;48.646;9.026;2023-05-27T06:58:38;22.42;;;5.90;;
30149;SDS011;16962;48.646;9.026;2023-05-27T07:01:28;16.50;;;5.20;;
30149;SDS011;16962;48.646;9.026;2023-05-27T07:04:16;17.98;;;5.05;;
30149;SDS011;16962;48.646;9.026;2023-05-27T07:07:03;16.50;;;5.10;;
30149;SDS011;16962;48.646;9.026;2023-05-27T07:09:50;15.23;;;5.28;;
30149;SDS011;16962;48.646;9.026;2023-05-27T07:12:38;15.10;;;5.43;;
30149;SDS011;16962;48.646;9.026;2023-05-27T07:15:27;16.83;;;5.38;;
30149;SDS011;16962;48.646;9.026;2023-05-27T07:18:14;15.82;;;5.13;;
30149;SDS011;16962;48.646;9.026;2023-05-27T07:21:02;13.98;;;5.25;;
30149;SDS011;16962;48.646;9.026;2023-05-27T07:23:50;15.32;;;4.72;;
30149;SDS011;16962;48.646;9.026;2023-05-27T07:26:37;17.65;;;5.03;;
30149;SDS011;16962;48.646;9.026;2023-05-27T07:29:25;11.40;;;4.78;;
30149;SDS011;16962;48.646;9.026;2023-05-27T07:32:12;14.02;;;5.07;;
30149;SDS011;16962;48.646;9.026;2023-05-27T07:35:00;13.05;;;4.63;;
30149;SDS011;16962;48.646;9.026;2023-05-27T07:37:47;14.02;;;5.28;;
30149;SDS011;16962;48.646;9.026;2023-05-27T07:40:34;13.73;;;5.43;;
30149;SDS011;16962;48.646;9.026;2023-05-27T07:43:21;13.05;;;4.47;;
30149;SDS011;16962;48.646;9.026;2023-05-27T07:46:09;12.73;;;4.40;;
30149;SDS011;16962;48.646;9.026;2023-05-27T07:48:56;13.70;;;5.15;;
30149;SDS011;16962;48.646;9.026;2023-05-27T07:51:43;12.43;;;4.82;;
30149;SDS011;16962;48.646;9.026;2023-05-27T07:54:31;12.05;;;4.57;;
30149;SDS011;16962;48.646;9.026;2023-05-27T07:57:23;15.15;;;5.00;;
30149;SDS011;16962;48.646;9.026;2023-05-27T08:00:11;14.98;;;5.18;;
30149;SDS011;16962;48.646;9.026;2023-05-27T08:02:59;13.15;;;4.57;;
30149;SDS011;16962;48.646;9.026;2023-05-27T08:05:47;14.40;;;5.20;;
30149;SDS011;16962;48.646;9.026;2023-05-27T08:08:36;16.65;;;5.35;;
30149;SDS011;16962;48.646;9.026;2023-05-27T08:11:24;19.17;;;6.00;;
30149;SDS011;16962;48.646;9.026;2023-05-27T08:14:12;15.30;;;5.40;;
30149;SDS011;16962;48.646;9.026;2023-05-27T08:16:59;15.25;;;5.18;;
30149;SDS011;16962;48.646;9.026;2023-05-27T08:19:47;10.45;;;4.65;;
30149;SDS011;16962;48.646;9.026;2023-05-27T08:22:34;17.88;;;5.60;;
30149;SDS011;16962;48.646;9.026;2023-05-27T08:25:21;17.70;;;5.00;;
30149;SDS011;16962;48.646;9.026;2023-05-27T08:28:09;15.60;;;5.53;;
30149;SDS011;16962;48.646;9.026;2023-05-27T08:30:56;14.48;;;4.90;;
30149;SDS011;16962;48.646;9.026;2023-05-27T08:33:44;14.88;;;6.07;;
30149;SDS011;16962;48.646;9.026;2023-05-27T08:36:33;16.58;;;5.25;;
30149;SDS011;16962;48.646;9.026;2023-05-27T08:39:21;15.50;;;5.07;;
30149;SDS011;16962;48.646;9.026;2023-05-27T08:42:08;11.23;;;5.35;;
30149;SDS011;16962;48.646;9.026;2023-05-27T08:44:56;15.30;;;5.63;;
30149;SDS011;16962;48.646;9.026;2023-05-27T08:47:43;15.57;;;5.43;;
30149;SDS011;16962;48.646;9.026;2023-05-27T08:50:32;17.58;;;5.63;;
30149;SDS011;16962;48.646;9.026;2023-05-27T08:53:19;15.43;;;5.07;;
30149;SDS011;16962;48.646;9.026;2023-05-27T08:56:09;12.50;;;5.28;;
30149;SDS011;16962;48.646;9.026;2023-05-27T08:59:00;13.38;;;5.03;;
30149;SDS011;16962;48.646;9.026;2023-05-27T09:01:48;15.18;;;5.50;;
30149;SDS011;16962;48.646;9.026;2023-05-27T09:04:36;11.38;;;5.13;;
30149;SDS011;16962;48.646;9.026;2023-05-27T09:07:25;10.70;;;5.10;;
30149;SDS011;16962;48.646;9.026;2023-05-27T09:10:15;13.43;;;5.05;;
30149;SDS011;16962;48.646;9.026;2023-05-27T09:13:04;11.90;;;4.95;;
30149;SDS011;16962;48.646;9.026;2023-05-27T09:15:59;15.43;;;5.75;;
30149;SDS011;16962;48.646;9.026;2023-05-27T09:18:49;14.85;;;5.10;;
30149;SDS011;16962;48.646;9.026;2023-05-27T09:21:37;11.98;;;4.30;;
30149;SDS011;16962;48.646;9.026;2023-05-27T09:24:25;10.93;;;4.97;;
30149;SDS011;16962;48.646;9.026;2023-05-27T09:27:13;10.70;;;5.38;;
30149;SDS011;16962;48.646;9.026;2023-05-27T09:30:06;14.13;;;5.47;;
30149;SDS011;16962;48.646;9.026;2023-05-27T09:33:00;14.18;;;5.70;;
30149;SDS011;16962;48.646;9.026;2023-05-27T09:35:51;11.73;;;5.40;;
30149;SDS011;16962;48.646;9.026;2023-05-27T09:38:54;14.40;;;4.55;;
30149;SDS011;16962;48.646;9.026;2023-05-27T09:42:05;12.52;;;5.43;;
30149;SDS011;16962;48.646;9.026;2023-05-27T09:44:54;11.73;;;5.13;;
30149;SDS011;16962;48.646;9.026;2023-05-27T09:47:47;12.32;;;5.28;;
30149;SDS011;16962;48.646;9.026;2023-05-27T09:50:37;11.63;;;5.18;;
30149;SDS011;16962;48.646;9.026;2023-05-27T09:53:27;13.88;;;5.15;;
30149;SDS011;16962;48.646;9.026;2023-05-27T09:56:14;13.38;;;5.28;;
30149;SDS011;16962;48.646;9.026;2023-05-27T09:59:02;11.98;;;4.97;;
30149;SDS011;16962;48.646;9.026;2023-05-27T10:01:55;13.45;;;5.15;;
30149;SDS011;16962;48.646;9.026;2023-05-27T10:04:46;11.80;;;4.47;;
30149;SDS011;16962;48.646;9.026;2023-05-27T10:07:39;9.77;;;5.03;;
30149;SDS011;16962;48.646;9.026;2023-05-27T10:13:35;10.25;;;4.88;;
30149;SDS011;16962;48.646;9.026;2023-05-27T10:16:26;13.20;;;5.20;;
30149;SDS011;16962;48.646;9.026;2023-05-27T10:19:16;10.70;;;4.47;;
30149;SDS011;16962;48.646;9.026;2023-05-27T10:22:07;12.32;;;5.22;;
30149;SDS011;16962;48.646;9.026;2023-05-27T10:25:05;12.85;;;5.68;;
30149;SDS011;16962;48.646;9.026;2023-05-27T10:28:02;10.43;;;5.15;;
30149;SDS011;16962;48.646;9.026;2023-05-27T10:30:50;10.80;;;4.55;;
30149;SDS011;16962;48.646;9.026;2023-05-27T10:33:38;12.90;;;5.68;;
30149;SDS011;16962;48.646;9.026;2023-05-27T10:36:28;12.57;;;5.65;;
30149;SDS011;16962;48.646;9.026;2023-05-27T10:39:25;12.43;;;4.80;;
30149;SDS011;16962;48.646;9.026;2023-05-27T10:42:20;13.00;;;5.60;;
30149;SDS011;16962;48.646;9.026;2023-05-27T10:49:23;11.57;;;5.00;;
30149;SDS011;16962;48.646;9.026;2023-05-27T10:56:51;12.95;;;5.60;;
30149;SDS011;16962;48.646;9.026;2023-05-27T11:06:29;8.95;;;4.72;;
30149;SDS011;16962;48.646;9.026;2023-05-27T11:13:20;14.50;;;5.60;;
30149;SDS011;16962;48.646;9.026;2023-05-27T11:16:15;11.63;;;5.13;;
30149;SDS011;16962;48.646;9.026;2023-05-27T11:19:03;9.30;;;4.75;;
30149;SDS011;16962;48.646;9.026;2023-05-27T11:21:50;12.52;;;5.47;;
30149;SDS011;16962;48.646;9.026;2023-05-27T11:24:37;8.50;;;4.53;;
30149;SDS011;16962;48.646;9.026;2023-05-27T11:27:32;12.23;;;5.43;;
30149;SDS011;16962;48.646;9.026;2023-05-27T11:30:24;10.80;;;4.40;;
30149;SDS011;16962;48.646;9.026;2023-05-27T11:33:13;10.27;;;4.57;;
30149;SDS011;16962;48.646;9.026;2023-05-27T11:36:24;9.52;;;4.95;;
30149;SDS011;16962;48.646;9.026;2023-05-27T11:39:13;10.63;;;5.65;;
30149;SDS011;16962;48.646;9.026;2023-05-27T11:42:08;15.25;;;5.63;;
30149;SDS011;16962;48.646;9.026;2023-05-27T11:44:55;16.48;;;5.55;;
30149;SDS011;16962;48.646;9.026;2023-05-27T11:47:44;12.68;;;5.05;;
30149;SDS011;16962;48.646;9.026;2023-05-27T11:50:33;8.40;;;4.80;;
30149;SDS011;16962;48.646;9.026;2023-05-27T11:53:21;10.70;;;5.20;;
30149;SDS011;16962;48.646;9.026;2023-05-27T11:56:09;12.27;;;5.65;;
30149;SDS011;16962;48.646;9.026;2023-05-27T11:58:56;12.18;;;5.45;;
30149;SDS011;16962;48.646;9.026;2023-05-27T12:01:44;13.32;;;5.50;;
30149;SDS011;16962;48.646;9.026;2023-05-27T12:04:32;12.02;;;5.10;;
30149;SDS011;16962;48.646;9.026;2023-05-27T12:07:19;15.50;;;5.10;;
30149;SDS011;16962;48.646;9.026;2023-05-27T12:10:07;13.93;;;5.45;;
30149;SDS011;16962;48.646;9.026;2023-05-27T12:13:05;11.80;;;5.75;;
30149;SDS011;16962;48.646;9.026;2023-05-27T12:15:53;8.95;;;5.03;;
30149;SDS011;16962;48.646;9.026;2023-05-27T12:18:40;12.15;;;5.20;;
30149;SDS011;16962;48.646;9.026;2023-05-27T12:21:28;10.55;;;4.80;;
30149;SDS011;16962;48.646;9.026;2023-05-27T12:24:16;11.13;;;5.63;;
30149;SDS011;16962;48.646;9.026;2023-05-27T12:27:06;14.18;;;5.85;;
30149;SDS011;16962;48.646;9.026;2023-05-27T12:29:54;13.75;;;5.88;;
30149;SDS011;16962;48.646;9.026;2023-05-27T12:32:42;12.32;;;5.82;;
30149;SDS011;16962;48.646;9.026;2023-05-27T12:35:29;11.75;;;5.72;;
30149;SDS011;16962;48.646;9.026;2023-05-27T12:38:17;10.80;;;5.53;;
30149;SDS011;16962;48.646;9.026;2023-05-27T12:41:05;11.23;;;6.10;;
30149;SDS011;16962;48.646;9.026;2023-05-27T12:43:54;9.05;;;4.85;;
30149;SDS011;16962;48.646;9.026;2023-05-27T12:46:42;12.55;;;5.30;;
30149;SDS011;16962;48.646;9.026;2023-05-27T12:49:29;11.10;;;4.75;;
30149;SDS011;16962;48.646;9.026;2023-05-27T12:52:17;10.15;;;5.15;;
30149;SDS011;16962;48.646;9.026;2023-05-27T12:55:07;10.18;;;4.70;;
30149;SDS011;16962;48.646;9.026;2023-05-27T12:57:54;8.75;;;5.00;;
30149;SDS011;16962;48.646;9.026;2023-05-27T13:00:42;12.30;;;4.88;;
30149;SDS011;16962;48.646;9.026;2023-05-27T13:03:31;13.43;;;5.15;;
30149;SDS011;16962;48.646;9.026;2023-05-27T13:06:18;10.35;;;5.32;;
30149;SDS011;16962;48.646;9.026;2023-05-27T13:09:06;13.18;;;5.95;;
30149;SDS011;16962;48.646;9.026;2023-05-27T13:11:53;11.07;;;5.30;;
30149;SDS011;16962;48.646;9.026;2023-05-27T13:14:40;10.13;;;5.28;;
30149;SDS011;16962;48.646;9.026;2023-05-27T13:17:29;8.95;;;4.95;;
30149;SDS011;16962;48.646;9.026;2023-05-27T13:20:19;12.63;;;5.85;;
30149;SDS011;16962;48.646;9.026;2023-05-27T13:23:07;10.93;;;5.15;;
30149;SDS011;16962;48.646;9.026;2023-05-27T13:25:56;10.75;;;5.80;;
30149;SDS011;16962;48.646;9.026;2023-05-27T13:28:44;12.77;;;5.57;;
30149;SDS011;16962;48.646;9.026;2023-05-27T13:31:31;9.18;;;4.97;;
30149;SDS011;16962;48.646;9.026;2023-05-27T13:34:19;11.98;;;5.70;;
30149;SDS011;16962;48.646;9.026;2023-05-27T13:37:06;12.90;;;5.60;;
30149;SDS011;16962;48.646;9.026;2023-05-27T13:39:56;10.52;;;5.55;;
30149;SDS011;16962;48.646;9.026;2023-05-27T13:42:44;10.82;;;5.55;;
30149;SDS011;16962;48.646;9.026;2023-05-27T13:45:32;14.80;;;6.10;;
30149;SDS011;16962;48.646;9.026;2023-05-27T13:48:21;12.85;;;6.30;;
30149;SDS011;16962;48.646;9.026;2023-05-27T13:51:09;11.43;;;6.13;;
30149;SDS011;16962;48.646;9.026;2023-05-27T13:53:57;15.90;;;5.63;;
30149;SDS011;16962;48.646;9.026;2023-05-27T13:56:47;12.38;;;5.78;;
30149;SDS011;16962;48.646;9.026;2023-05-27T13:59:34;13.23;;;5.80;;
30149;SDS011;16962;48.646;9.026;2023-05-27T14:02:22;15.75;;;6.65;;
30149;SDS011;16962;48.646;9.026;2023-05-27T14:05:10;13.30;;;7.32;;
30149;SDS011;16962;48.646;9.026;2023-05-27T14:07:59;13.23;;;6.90;;
30149;SDS011;16962;48.646;9.026;2023-05-27T14:10:52;13.32;;;6.72;;
30149;SDS011;16962;48.646;9.026;2023-05-27T14:13:40;12.38;;;7.20;;
30149;SDS011;16962;48.646;9.026;2023-05-27T14:16:28;12.60;;;6.60;;
30149;SDS011;16962;48.646;9.026;2023-05-27T14:19:18;13.50;;;6.40;;
30149;SDS011;16962;48.646;9.026;2023-05-27T14:22:07;12.98;;;6.03;;
30149;SDS011;16962;48.646;9.026;2023-05-27T14:24:54;9.23;;;5.93;;
30149;SDS011;16962;48.646;9.026;2023-05-27T14:27:42;11.93;;;6.40;;
30149;SDS011;16962;48.646;9.026;2023-05-27T14:30:30;11.70;;;5.55;;
30149;SDS011;16962;48.646;9.026;2023-05-27T14:33:18;10.40;;;5.50;;
30149;SDS011;16962;48.646;9.026;2023-05-27T14:36:05;8.13;;;5.47;;
30149;SDS011;16962;48.646;9.026;2023-05-27T14:38:53;9.93;;;5.53;;
30149;SDS011;16962;48.646;9.026;2023-05-27T14:41:41;11.63;;;5.47;;
30149;SDS011;16962;48.646;9.026;2023-05-27T14:44:31;10.45;;;5.13;;
30149;SDS011;16962;48.646;9.026;2023-05-27T14:47:22;10.70;;;5.68;;
30149;SDS011;16962;48.646;9.026;2023-05-27T14:50:09;10.98;;;5.75;;
30149;SDS011;16962;48.646;9.026;2023-05-27T14:52:57;12.55;;;5.47;;
30149;SDS011;16962;48.646;9.026;2023-05-27T14:55:44;9.82;;;5.80;;
30149;SDS011;16962;48.646;9.026;2023-05-27T14:58:35;10.40;;;5.75;;
30149;SDS011;16962;48.646;9.026;2023-05-27T15:01:25;10.10;;;5.53;;
30149;SDS011;16962;48.646;9.026;2023-05-27T15:04:13;8.90;;;5.35;;
30149;SDS011;16962;48.646;9.026;2023-05-27T15:07:00;14.90;;;5.50;;
30149;SDS011;16962;48.646;9.026;2023-05-27T15:09:50;14.23;;;5.60;;
30149;SDS011;16962;48.646;9.026;2023-05-27T15:12:41;10.73;;;5.38;;
30149;SDS011;16962;48.646;9.026;2023-05-27T15:15:33;10.82;;;4.95;;
30149;SDS011;16962;48.646;9.026;2023-05-27T15:18:25;13.00;;;4.60;;
30149;SDS011;16962;48.646;9.026;2023-05-27T15:21:13;10.63;;;5.07;;
30149;SDS011;16962;48.646;9.026;2023-05-27T15:24:02;11.82;;;4.95;;
30149;SDS011;16962;48.646;9.026;2023-05-27T15:26:51;11.35;;;5.35;;
30149;SDS011;16962;48.646;9.026;2023-05-27T15:29:39;8.70;;;5.00;;
30149;SDS011;16962;48.646;9.026;2023-05-27T15:32:26;13.82;;;4.65;;
30149;SDS011;16962;48.646;9.026;2023-05-27T15:35:14;8.30;;;4.47;;
30149;SDS011;16962;48.646;9.026;2023-05-27T15:38:03;11.05;;;4.70;;
30149;SDS011;16962;48.646;9.026;2023-05-27T15:40:51;9.00;;;4.35;;
30149;SDS011;16962;48.646;9.026;2023-05-27T15:43:39;12.43;;;4.32;;
30149;SDS011;16962;48.646;9.026;2023-05-27T15:46:26;13.43;;;4.43;;
30149;SDS011;16962;48.646;9.026;2023-05-27T15:49:16;26.05;;;4.90;;
30149;SDS011;16962;48.646;9.026;2023-05-27T15:52:03;9.32;;;3.95;;
30149;SDS011;16962;48.646;9.026;2023-05-27T15:54:57;6.53;;;3.97;;
30149;SDS011;16962;48.646;9.026;2023-05-27T15:57:44;8.02;;;4.05;;
30149;SDS011;16962;48.646;9.026;2023-05-27T16:00:32;13.23;;;3.88;;
30149;SDS011;16962;48.646;9.026;2023-05-27T16:03:19;7.18;;;4.38;;
30149;SDS011;16962;48.646;9.026;2023-05-27T16:06:07;10.25;;;4.25;;
30149;SDS011;16962;48.646;9.026;2023-05-27T16:08:55;11.13;;;4.70;;
30149;SDS011;16962;48.646;9.026;2023-05-27T16:11:42;9.77;;;4.43;;
30149;SDS011;16962;48.646;9.026;2023-05-27T16:14:29;11.10;;;5.25;;
30149;SDS011;16962;48.646;9.026;2023-05-27T16:17:16;7.18;;;4.15;;
30149;SDS011;16962;48.646;9.026;2023-05-27T16:20:04;14.07;;;4.53;;
30149;SDS011;16962;48.646;9.026;2023-05-27T16:22:51;10.38;;;4.32;;
30149;SDS011;16962;48.646;9.026;2023-05-27T16:25:46;7.90;;;3.58;;
30149;SDS011;16962;48.646;9.026;2023-05-27T16:28:38;9.07;;;4.55;;
30149;SDS011;16962;48.646;9.026;2023-05-27T16:31:29;9.43;;;4.57;;
30149;SDS011;16962;48.646;9.026;2023-05-27T16:34:17;10.23;;;4.00;;
30149;SDS011;16962;48.646;9.026;2023-05-27T16:37:05;8.52;;;4.50;;
30149;SDS011;16962;48.646;9.026;2023-05-27T16:40:03;8.98;;;4.47;;
30149;SDS011;16962;48.646;9.026;2023-05-27T16:42:51;12.35;;;4.95;;
30149;SDS011;16962;48.646;9.026;2023-05-27T16:45:38;10.43;;;4.60;;
30149;SDS011;16962;48.646;9.026;2023-05-27T16:48:29;12.25;;;4.20;;
30149;SDS011;16962;48.646;9.026;2023-05-27T16:51:16;9.80;;;4.28;;
30149;SDS011;16962;48.646;9.026;2023-05-27T16:54:06;11.52;;;4.50;;
30149;SDS011;16962;48.646;9.026;2023-05-27T16:56:54;9.73;;;4.20;;
30149;SDS011;16962;48.646;9.026;2023-05-27T16:59:43;12.60;;;4.68;;
30149;SDS011;16962;48.646;9.026;2023-05-27T17:02:33;12.90;;;4.65;;
30149;SDS011;16962;48.646;9.026;2023-05-27T17:05:20;7.82;;;3.97;;
30149;SDS011;16962;48.646;9.026;2023-05-27T17:08:08;11.32;;;4.90;;
30149;SDS011;16962;48.646;9.026;2023-05-27T17:10:57;10.10;;;4.80;;
30149;SDS011;16962;48.646;9.026;2023-05-27T17:13:45;12.32;;;5.00;;
30149;SDS011;16962;48.646;9.026;2023-05-27T17:16:33;15.30;;;4.65;;
30149;SDS011;16962;48.646;9.026;2023-05-27T17:19:20;10.80;;;4.25;;